Time;durP1;ratioP1;P1;durP2;ratioP2;P2;SDS_P1;SDS_P2;PMS_P1;PMS_P2;Temp;Humidity;BMP_temperature;BMP_pressure;BME280_temperature;BME280_humidity;BME280_pressure;Samples;Min_cycle;Max_cycle;Signal;HPM_P1;HPM_P2
2022/09/24 00:01:46;;;;;;;5.25;4.45;;;;;;;12.62;100.00;99116.58;1728908;83;20951;-71
2022/09/24 00:04:13;;;;;;;8.03;3.90;;;;;;;12.63;100.00;99116.00;1728845;83;21878;-72
2022/09/24 00:06:43;;;;;;;5.55;4.08;;;;;;;12.62;100.00;99117.95;1728648;83;21022;-73
2022/09/24 00:09:11;;;;;;;8.95;3.80;;;;;;;12.60;100.00;99113.37;1728885;83;20987;-72
2022/09/24 00:11:39;;;;;;;4.65;3.87;;;;;;;12.60;100.00;99110.61;1728704;83;21456;-68
2022/09/24 00:14:08;;;;;;;5.65;3.98;;;;;;;12.63;100.00;99114.63;1728628;83;21002;-74
2022/09/24 00:16:38;;;;;;;8.35;4.15;;;;;;;12.59;100.00;99115.88;1728883;83;20963;-72
2022/09/24 00:19:04;;;;;;;6.83;4.17;;;;;;;12.62;100.00;99117.17;1694993;83;20956;-71
2022/09/24 00:21:34;;;;;;;5.62;4.22;;;;;;;12.66;100.00;99114.75;1715496;83;21012;-66
2022/09/24 00:24:10;;;;;;;5.33;3.98;;;;;;;12.66;100.00;99113.94;1715549;83;21025;-73
2022/09/24 00:26:49;;;;;;;7.65;3.55;;;;;;;12.65;100.00;99109.56;1715109;83;20991;-65
2022/09/24 00:29:21;;;;;;;5.40;4.12;;;;;;;12.65;100.00;99112.33;1685586;83;21484;-73
2022/09/24 00:31:48;;;;;;;5.28;4.20;;;;;;;12.66;100.00;99112.55;1715648;83;20956;-69
2022/09/24 00:34:15;;;;;;;8.33;4.50;;;;;;;12.68;100.00;99108.87;1715510;83;21015;-73
2022/09/24 00:36:41;;;;;;;5.97;4.35;;;;;;;12.68;100.00;99100.58;1715435;83;20908;-73
2022/09/24 00:39:14;;;;;;;5.35;3.85;;;;;;;12.68;100.00;99103.91;1685864;83;20943;-68
2022/09/24 00:41:47;;;;;;;6.65;3.90;;;;;;;12.64;100.00;99101.05;1715868;83;21187;-71
2022/09/24 00:44:46;;;;;;;4.35;3.30;;;;;;;12.57;100.00;99098.05;1715007;83;20896;-71
2022/09/24 00:47:38;;;;;;;4.30;3.60;;;;;;;12.51;100.00;99101.03;1715578;83;21445;-73
2022/09/24 00:50:30;;;;;;;4.80;3.92;;;;;;;12.46;100.00;99104.58;1715475;83;21513;-72
2022/09/24 00:53:08;;;;;;;5.00;3.60;;;;;;;12.46;100.00;99100.44;1703018;83;21027;-69
2022/09/24 00:55:37;;;;;;;3.30;3.00;;;;;;;12.48;100.00;99102.29;1686615;85;21198;-72
2022/09/24 00:58:06;;;;;;;7.42;3.20;;;;;;;12.51;100.00;99103.80;1679135;85;21512;-72
2022/09/24 01:00:39;;;;;;;4.42;3.33;;;;;;;12.53;100.00;99102.06;1679436;85;20960;-71
2022/09/24 01:03:10;;;;;;;5.45;4.47;;;;;;;12.57;100.00;99100.25;1660113;85;21497;-69
2022/09/24 01:05:37;;;;;;;5.70;3.92;;;;;;;12.59;100.00;99097.92;1679599;85;21485;-68
2022/09/24 01:08:08;;;;;;;3.77;3.40;;;;;;;12.60;100.00;99095.97;1679236;85;20968;-73
2022/09/24 01:11:08;;;;;;;5.05;3.45;;;;;;;12.59;100.00;99097.13;1679117;85;20924;-72
2022/09/24 01:14:09;;;;;;;4.35;3.10;;;;;;;12.60;100.00;99094.02;1679164;85;20928;-69
2022/09/24 01:17:02;;;;;;;5.55;3.15;;;;;;;12.64;100.00;99092.77;1679484;85;21000;-72
2022/09/24 01:19:58;;;;;;;4.87;3.83;;;;;;;12.62;100.00;99083.41;1679477;84;20984;-71
2022/09/24 01:23:02;;;;;;;8.55;3.45;;;;;;;12.64;100.00;99090.00;1678821;85;20968;-71
2022/09/24 01:25:47;;;;;;;4.92;3.08;;;;;;;12.62;100.00;99089.53;1659921;85;21406;-73
2022/09/24 01:28:42;;;;;;;5.25;3.80;;;;;;;12.63;100.00;99089.19;1679169;85;21505;-72
2022/09/24 01:31:23;;;;;;;3.35;2.62;;;;;;;12.68;100.00;99085.95;1679189;84;20968;-71
2022/09/24 01:33:52;;;;;;;5.33;3.40;;;;;;;12.72;100.00;99090.46;1679570;85;20928;-73
2022/09/24 01:36:21;;;;;;;4.45;3.45;;;;;;;12.63;100.00;99085.04;1658461;85;21272;-70
2022/09/24 01:38:51;;;;;;;4.87;3.12;;;;;;;12.57;100.00;99085.05;1659014;85;21000;-69
2022/09/24 01:41:19;;;;;;;7.97;3.45;;;;;;;12.55;100.00;99085.95;1679163;85;21340;-69
2022/09/24 01:43:47;;;;;;;4.47;3.22;;;;;;;12.56;100.00;99079.84;1659799;85;20963;-71
2022/09/24 01:46:18;;;;;;;3.65;3.35;;;;;;;12.48;100.00;99074.09;1679177;85;20898;-70
2022/09/24 01:48:46;;;;;;;3.25;2.95;;;;;;;12.43;100.00;99077.64;1679140;85;21485;-72
2022/09/24 01:51:28;;;;;;;6.35;3.72;;;;;;;12.39;100.00;99079.72;1679177;85;21405;-73
2022/09/24 01:54:21;;;;;;;6.45;3.35;;;;;;;12.40;100.00;99081.32;1679058;84;20936;-67
2022/09/24 01:57:08;;;;;;;4.55;3.83;;;;;;;12.42;100.00;99076.83;1673590;85;20920;-70
2022/09/24 01:59:40;;;;;;;3.52;3.20;;;;;;;12.43;100.00;99077.64;1679194;85;20976;-72
2022/09/24 02:02:27;;;;;;;6.90;3.35;;;;;;;12.43;100.00;99077.64;1679449;85;21776;-69
2022/09/24 02:05:11;;;;;;;5.80;3.55;;;;;;;12.39;100.00;99076.14;1659363;85;20963;-71
2022/09/24 02:07:43;;;;;;;4.10;3.20;;;;;;;12.35;100.00;99080.16;1658666;85;21036;-66
2022/09/24 02:10:17;;;;;;;4.97;3.70;;;;;;;12.32;100.00;99079.47;1679282;85;20933;-70
2022/09/24 02:12:52;;;;;;;11.95;3.98;;;;;;;12.34;100.00;99088.80;1679123;85;20976;-71
2022/09/24 02:15:26;;;;;;;3.20;2.90;;;;;;;12.34;100.00;99086.84;1679082;85;21215;-69
2022/09/24 02:17:56;;;;;;;3.62;3.00;;;;;;;12.31;100.00;99089.48;1679410;85;20935;-72
2022/09/24 02:20:23;;;;;;;3.98;3.58;;;;;;;12.33;100.00;99087.19;1679076;85;21441;-73
2022/09/24 02:22:51;;;;;;;3.60;3.22;;;;;;;12.34;100.00;99088.23;1679217;85;21000;-72
2022/09/24 02:25:33;;;;;;;7.70;3.60;;;;;;;12.33;100.00;99088.57;1679259;85;20978;-73
2022/09/24 02:28:03;;;;;;;4.78;3.98;;;;;;;12.32;100.00;99085.00;1658947;85;21146;-71
2022/09/24 02:30:37;;;;;;;4.62;3.80;;;;;;;12.34;100.00;99089.61;1679249;85;20920;-72
2022/09/24 02:34:19;;;;;;;;;;;;;;;12.34;100.00;99091.55;1681704;85;20986;-73
2022/09/24 02:35:39;;;;;;;4.00;3.35;;;;;;;12.31;100.00;99094.44;1657241;85;20098;-72
2022/09/24 02:38:18;;;;;;;5.42;4.12;;;;;;;12.31;100.00;99103.30;1679122;85;21055;-73
2022/09/24 02:40:48;;;;;;;4.30;3.90;;;;;;;12.29;100.00;99102.26;1679179;85;20983;-71
2022/09/24 02:43:23;;;;;;;8.25;3.67;;;;;;;12.29;100.00;99101.69;1679090;85;21485;-68
2022/09/24 02:45:49;;;;;;;6.17;4.17;;;;;;;12.28;100.00;99101.44;1679629;85;20911;-72
2022/09/24 02:48:16;;;;;;;5.05;4.05;;;;;;;12.27;100.00;99101.78;1679075;85;21501;-71
2022/09/24 02:50:45;;;;;;;4.60;3.17;;;;;;;12.21;100.00;99101.22;1679126;85;21528;-71
2022/09/24 02:53:15;;;;;;;7.47;4.10;;;;;;;12.20;100.00;99107.08;1679082;84;21141;-65
2022/09/24 02:55:42;;;;;;;7.45;4.03;;;;;;;12.21;100.00;99104.55;1679059;85;21022;-70
2022/09/24 02:58:11;;;;;;;3.62;3.15;;;;;;;12.20;100.00;99103.73;1637538;85;20937;-72
2022/09/24 03:00:39;;;;;;;5.92;3.83;;;;;;;12.16;100.00;99109.72;1679110;85;20951;-72
2022/09/24 03:03:06;;;;;;;3.58;3.25;;;;;;;12.13;100.00;99108.42;1679171;85;20889;-68
2022/09/24 03:05:34;;;;;;;5.10;3.80;;;;;;;12.13;100.00;99111.19;1679114;85;21176;-71
2022/09/24 03:08:03;;;;;;;10.25;3.62;;;;;;;12.13;100.00;99117.31;1679020;85;20948;-71
2022/09/24 03:10:34;;;;;;;6.97;3.52;;;;;;;12.12;100.00;99117.87;1679171;85;20924;-71
2022/09/24 03:13:01;;;;;;;3.98;3.33;;;;;;;12.11;100.00;99107.95;1679164;85;21031;-72
2022/09/24 03:15:29;;;;;;;6.87;3.58;;;;;;;12.16;100.00;99113.86;1679112;85;20988;-72
2022/09/24 03:17:56;;;;;;;7.10;3.72;;;;;;;12.20;100.00;99115.37;1679083;85;21141;-71
2022/09/24 03:20:24;;;;;;;5.70;3.62;;;;;;;12.21;100.00;99110.88;1678904;85;20971;-66
2022/09/24 03:22:53;;;;;;;4.05;3.37;;;;;;;12.24;100.00;99100.53;1679163;85;21051;-72
2022/09/24 03:25:20;;;;;;;7.80;3.83;;;;;;;12.27;100.00;99107.31;1679198;85;20900;-71
2022/09/24 03:27:48;;;;;;;6.85;3.65;;;;;;;12.26;100.00;99116.19;1679052;85;21426;-72
2022/09/24 03:33:01;;;;;;;6.58;3.05;;;;;;;12.27;100.00;99108.13;1679088;85;20978;-68
2022/09/24 03:35:28;;;;;;;5.70;2.90;;;;;;;12.32;100.00;99109.86;1679191;85;21039;-71
2022/09/24 03:37:55;;;;;;;3.62;2.70;;;;;;;12.34;100.00;99108.95;1679004;85;21059;-70
2022/09/24 03:40:24;;;;;;;9.98;2.85;;;;;;;12.33;100.00;99120.34;1679236;85;21049;-73
2022/09/24 03:42:56;;;;;;;3.65;2.87;;;;;;;12.32;100.00;99117.36;1679279;85;21210;-70
2022/09/24 03:45:24;;;;;;;3.17;2.40;;;;;;;12.28;100.00;99115.84;1679217;85;21523;-72
2022/09/24 03:47:51;;;;;;;5.40;2.90;;;;;;;12.30;100.00;99114.91;1679323;85;20884;-71
2022/09/24 03:50:20;;;;;;;5.12;2.90;;;;;;;12.34;100.00;99109.52;1679037;85;21035;-71
2022/09/24 03:52:47;;;;;;;6.03;3.17;;;;;;;12.23;100.00;99116.06;1679122;84;21046;-72
2022/09/24 03:55:18;;;;;;;4.65;2.92;;;;;;;12.25;100.00;99112.36;1679094;85;21107;-69
2022/09/24 03:57:44;;;;;;;6.75;3.10;;;;;;;12.23;100.00;99114.69;1679150;85;21075;-69
2022/09/24 04:00:14;;;;;;;5.40;3.35;;;;;;;12.24;100.00;99119.05;1679291;85;21433;-73
2022/09/24 04:02:43;;;;;;;6.28;3.80;;;;;;;12.17;100.00;99121.80;1679166;85;20928;-67
2022/09/24 04:05:10;;;;;;;4.05;3.25;;;;;;;12.16;100.00;99119.38;1659728;85;20952;-70
2022/09/24 04:07:39;;;;;;;4.10;3.60;;;;;;;12.14;100.00;99116.15;1679041;85;20992;-71
2022/09/24 04:10:11;;;;;;;3.35;2.90;;;;;;;12.09;100.00;99114.41;1679163;85;20937;-72
2022/09/24 04:12:44;;;;;;;6.75;3.40;;;;;;;12.10;100.00;99120.72;1679038;85;21242;-69
2022/09/24 04:15:11;;;;;;;4.20;3.20;;;;;;;12.08;100.00;99118.27;1679043;85;20912;-72
2022/09/24 04:17:41;;;;;;;4.37;3.40;;;;;;;12.11;100.00;99117.62;1679091;85;20952;-72
2022/09/24 04:20:11;;;;;;;3.47;2.98;;;;;;;12.12;100.00;99121.20;1678978;85;23873;-73
2022/09/24 04:22:38;;;;;;;3.58;3.17;;;;;;;12.12;100.00;99120.63;1678980;85;21012;-71
2022/09/24 04:25:07;;;;;;;3.80;2.75;;;;;;;12.12;100.00;99123.39;1659851;85;21073;-68
2022/09/24 04:27:35;;;;;;;4.35;3.15;;;;;;;12.22;100.00;99118.58;1678986;85;21003;-66
2022/09/24 04:30:02;;;;;;;5.97;2.92;;;;;;;12.26;100.00;99127.24;1679074;85;20999;-67
2022/09/24 04:32:30;;;;;;;5.03;2.90;;;;;;;12.34;100.00;99125.52;1679049;85;21158;-72
2022/09/24 04:34:58;;;;;;;3.47;2.35;;;;;;;12.38;100.00;99124.27;1679120;85;20984;-71
2022/09/24 04:37:25;;;;;;;3.15;2.50;;;;;;;12.36;100.00;99125.99;1679065;85;20924;-71
2022/09/24 04:39:52;;;;;;;3.77;3.10;;;;;;;12.37;100.00;99126.22;1679137;85;20937;-69
2022/09/24 04:42:21;;;;;;;4.80;3.50;;;;;;;12.34;100.00;99130.23;1678968;85;20900;-71
2022/09/24 04:44:47;;;;;;;4.60;2.75;;;;;;;12.33;100.00;99124.48;1679066;85;21111;-69
2022/09/24 04:47:16;;;;;;;6.67;3.00;;;;;;;12.39;100.00;99130.02;1679032;85;21035;-71
2022/09/24 04:49:46;;;;;;;4.08;2.85;;;;;;;12.33;100.00;99122.53;1659441;85;20970;-71
2022/09/24 04:52:15;;;;;;;4.15;3.20;;;;;;;12.37;100.00;99122.63;1679218;84;20999;-71
2022/09/24 04:54:45;;;;;;;3.58;2.80;;;;;;;12.31;100.00;99133.12;1679422;85;20999;-73
2022/09/24 04:57:13;;;;;;;3.90;3.10;;;;;;;12.29;100.00;99127.12;1679032;85;21639;-71
2022/09/24 04:59:43;;;;;;;4.08;3.67;;;;;;;12.26;100.00;99132.77;1678980;85;21394;-71
2022/09/24 05:02:12;;;;;;;3.87;3.47;;;;;;;12.25;100.00;99131.70;1678930;85;20969;-72
2022/09/24 05:04:39;;;;;;;9.23;4.30;;;;;;;12.26;100.00;99130.56;1679075;85;20945;-73
2022/09/24 05:07:13;;;;;;;3.80;3.35;;;;;;;12.23;100.00;99122.97;1679414;85;21500;-71
2022/09/24 05:09:43;;;;;;;6.47;3.25;;;;;;;12.28;100.00;99131.04;1678787;85;21019;-72
2022/09/24 05:12:13;;;;;;;4.12;3.70;;;;;;;12.31;100.00;99133.12;1679280;85;21044;-73
2022/09/24 05:14:41;;;;;;;5.17;3.30;;;;;;;12.32;100.00;99133.34;1679216;85;20868;-71
2022/09/24 05:17:08;;;;;;;3.30;3.00;;;;;;;12.28;100.00;99132.42;1679026;85;20976;-72
2022/09/24 05:19:35;;;;;;;4.40;2.80;;;;;;;12.22;100.00;99130.44;1679181;85;21024;-70
2022/09/24 05:22:03;;;;;;;5.05;3.65;;;;;;;12.23;100.00;99133.42;1679225;84;21475;-72
2022/09/24 05:24:32;;;;;;;5.60;2.87;;;;;;;12.21;100.00;99131.59;1679218;85;20953;-70
2022/09/24 05:27:08;;;;;;;4.10;2.70;;;;;;;12.21;100.00;99127.45;1679345;85;21409;-72
2022/09/24 05:29:40;;;;;;;4.20;2.85;;;;;;;12.23;100.00;99134.80;1679391;85;21540;-70
2022/09/24 05:32:14;;;;;;;5.65;2.98;;;;;;;12.23;100.00;99134.02;1679511;85;21500;-72
2022/09/24 05:34:46;;;;;;;6.62;3.17;;;;;;;12.27;100.00;99137.70;1679354;85;21137;-73
2022/09/24 05:37:13;;;;;;;7.72;3.22;;;;;;;12.24;100.00;99133.67;1659833;85;20980;-73
2022/09/24 05:39:41;;;;;;;3.70;2.98;;;;;;;12.20;100.00;99136.87;1679297;85;20987;-73
2022/09/24 05:42:13;;;;;;;8.90;2.75;;;;;;;12.19;100.00;99139.41;1679530;85;21090;-71
2022/09/24 05:44:44;;;;;;;6.28;2.92;;;;;;;12.21;100.00;99136.30;1679486;85;20904;-70
2022/09/24 05:47:16;;;;;;;2.58;2.12;;;;;;;12.25;100.00;99133.08;1659680;85;21101;-70
2022/09/24 05:49:50;;;;;;;10.00;3.40;;;;;;;12.31;100.00;99141.41;1679036;85;20940;-71
2022/09/24 05:52:17;;;;;;;3.75;2.62;;;;;;;12.38;100.00;99139.46;1679208;84;21477;-70
2022/09/24 05:54:44;;;;;;;5.65;2.47;;;;;;;12.41;100.00;99137.39;1679457;85;21012;-72
2022/09/24 05:57:18;;;;;;;4.42;2.83;;;;;;;12.45;100.00;99138.91;1679185;85;21087;-72
2022/09/24 05:59:46;;;;;;;3.33;2.70;;;;;;;12.43;100.00;99135.66;1679898;85;21105;-69
2022/09/24 06:02:15;;;;;;;5.80;3.05;;;;;;;12.44;100.00;99136.70;1679071;85;21047;-70
2022/09/24 06:04:42;;;;;;;4.53;3.05;;;;;;;12.39;100.00;99130.83;1679179;85;21461;-74
2022/09/24 06:07:10;;;;;;;5.28;2.87;;;;;;;12.40;100.00;99135.19;1679149;85;20956;-70
2022/09/24 06:09:37;;;;;;;6.67;3.30;;;;;;;12.51;100.00;99131.43;1679162;85;20999;-70
2022/09/24 06:12:09;;;;;;;3.27;2.72;;;;;;;12.61;100.00;99135.70;1679184;85;21539;-66
2022/09/24 06:14:41;;;;;;;3.20;2.87;;;;;;;12.68;100.00;99131.55;1679180;85;20939;-72
2022/09/24 06:17:11;;;;;;;3.33;2.72;;;;;;;12.73;100.00;99134.91;1679424;85;20968;-68
2022/09/24 06:19:39;;;;;;;7.35;2.60;;;;;;;12.70;100.00;99138.93;1679229;85;21418;-72
2022/09/24 06:22:06;;;;;;;4.08;2.90;;;;;;;12.65;100.00;99139.41;1690060;84;20987;-73
2022/09/24 06:24:32;;;;;;;3.25;2.40;;;;;;;12.63;100.00;99152.75;1672243;84;21179;-72
2022/09/24 06:26:59;;;;;;;3.20;2.40;;;;;;;12.64;100.00;99146.06;1673320;84;20995;-71
2022/09/24 06:29:28;;;;;;;6.35;2.67;;;;;;;12.66;100.00;99143.77;1699265;84;20995;-71
2022/09/24 06:31:56;;;;;;;3.55;2.70;;;;;;;12.66;100.00;99150.67;1699549;84;21011;-72
2022/09/24 06:34:24;;;;;;;2.33;2.02;;;;;;;12.66;100.00;99158.97;1699747;84;20943;-72
2022/09/24 06:36:54;;;;;;;2.62;2.30;;;;;;;12.63;100.00;99154.70;1691435;84;21393;-66
2022/09/24 06:39:23;;;;;;;7.10;2.83;;;;;;;12.61;100.00;99150.90;1699303;84;20880;-69
2022/09/24 06:41:50;;;;;;;4.00;2.37;;;;;;;12.65;100.00;99157.37;1699502;84;20947;-67
2022/09/24 06:44:21;;;;;;;3.77;2.83;;;;;;;12.68;100.00;99154.48;1699277;84;21043;-72
2022/09/24 06:46:47;;;;;;;3.20;2.58;;;;;;;12.71;100.00;99154.38;1699167;84;21003;-72
2022/09/24 06:49:14;;;;;;;3.67;2.70;;;;;;;12.73;100.00;99160.34;1699361;84;21491;-71
2022/09/24 06:51:45;;;;;;;3.30;2.75;;;;;;;12.73;100.00;99165.88;1699265;84;20983;-71
2022/09/24 06:54:14;;;;;;;3.80;2.80;;;;;;;12.71;100.00;99161.30;1699243;84;21107;-71
2022/09/24 06:56:45;;;;;;;4.30;2.83;;;;;;;12.82;100.00;99158.88;1698822;84;21536;-66
2022/09/24 06:59:14;;;;;;;5.03;2.90;;;;;;;13.02;100.00;99166.83;1699243;84;20944;-71
2022/09/24 07:01:41;;;;;;;4.12;3.00;;;;;;;13.23;100.00;99166.72;1699252;84;21134;-72
2022/09/24 07:04:13;;;;;;;6.20;3.10;;;;;;;13.39;100.00;99165.42;1699118;84;20991;-67
2022/09/24 07:09:31;;;;;;;6.15;3.00;;;;;;;13.46;100.00;99168.98;1699260;84;21480;-67
2022/09/24 07:12:04;;;;;;;5.42;2.58;;;;;;;13.55;100.00;99168.89;1699228;84;20915;-73
2022/09/24 07:14:29;;;;;;;3.30;3.00;;;;;;;13.60;100.00;99170.04;1699060;84;21364;-72
2022/09/24 07:16:56;;;;;;;5.62;3.20;;;;;;;13.60;100.00;99165.89;1699079;84;20919;-67
2022/09/24 07:19:22;;;;;;;3.55;2.83;;;;;;;13.61;100.00;99165.32;1699335;84;20852;-71
2022/09/24 07:21:50;;;;;;;5.20;3.33;;;;;;;13.68;100.00;99164.13;1695758;84;21520;-71
2022/09/24 07:24:17;;;;;;;7.58;3.12;;;;;;;13.67;100.00;99176.37;1693909;84;21047;-72
2022/09/24 07:26:46;;;;;;;3.20;2.42;;;;;;;13.68;100.00;99173.03;1693789;84;21138;-72
2022/09/24 07:29:16;;;;;;;4.35;2.85;;;;;;;13.58;100.00;99172.34;1693377;84;21049;-71
2022/09/24 07:31:42;;;;;;;4.03;2.60;;;;;;;13.58;100.00;99177.09;1693606;84;20887;-72
2022/09/24 07:34:13;;;;;;;5.60;2.77;;;;;;;13.62;100.00;99174.66;1666255;84;20907;-72
2022/09/24 07:36:43;;;;;;;5.33;2.62;;;;;;;13.61;100.00;99168.88;1693772;84;21372;-72
2022/09/24 07:39:18;;;;;;;2.62;2.40;;;;;;;13.61;100.00;99168.09;1693638;84;21955;-71
2022/09/24 07:41:51;;;;;;;3.33;2.72;;;;;;;13.63;100.00;99167.95;1693579;84;21036;-71
2022/09/24 07:44:24;;;;;;;4.15;2.60;;;;;;;13.73;100.00;99176.94;1693705;84;21389;-71
2022/09/24 07:46:51;;;;;;;3.30;2.33;;;;;;;13.90;100.00;99176.42;1693654;84;21029;-72
2022/09/24 07:49:22;;;;;;;3.45;2.35;;;;;;;13.99;100.00;99175.69;1693707;84;20959;-72
2022/09/24 07:51:52;;;;;;;4.00;2.50;;;;;;;14.03;100.00;99179.95;1693717;83;20920;-74
2022/09/24 07:54:20;;;;;;;1.80;1.70;;;;;;;14.04;100.00;99176.04;1666782;84;20919;-71
2022/09/24 07:56:47;;;;;;;3.17;2.33;;;;;;;14.10;100.00;99173.23;1693690;84;21002;-67
2022/09/24 07:59:19;;;;;;;3.35;2.27;;;;;;;14.18;100.00;99175.62;1693662;84;20991;-70
2022/09/24 08:01:51;;;;;;;2.92;2.20;;;;;;;14.28;100.00;99177.88;1693387;84;20915;-72
2022/09/24 08:04:18;;;;;;;2.92;1.98;;;;;;;14.37;100.00;99177.73;1693778;84;21129;-70
2022/09/24 08:06:47;;;;;;;7.85;2.42;;;;;;;14.39;100.00;99185.69;1693532;84;20963;-70
2022/09/24 08:09:15;;;;;;;2.60;2.10;;;;;;;14.36;100.00;99185.83;1693644;84;21643;-73
2022/09/24 08:11:45;;;;;;;3.15;2.37;;;;;;;14.34;100.00;99188.95;1693560;84;21408;-73
2022/09/24 08:14:12;;;;;;;2.77;2.20;;;;;;;14.37;100.00;99190.20;1644105;84;20999;-73
2022/09/24 08:16:41;;;;;;;2.10;1.82;;;;;;;14.46;100.00;99194.20;1693709;84;21134;-69
2022/09/24 08:19:12;;;;;;;2.37;2.00;;;;;;;14.55;100.00;99189.89;1693896;84;20880;-72
2022/09/24 08:21:43;;;;;;;7.87;1.87;;;;;;;14.67;100.00;99190.39;1691147;84;20939;-73
2022/09/24 08:24:11;;;;;;;3.08;2.42;;;;;;;14.85;100.00;99192.27;1679136;85;20976;-72
2022/09/24 08:26:39;;;;;;;2.35;2.15;;;;;;;15.01;100.00;99193.64;1679108;85;21457;-70
2022/09/24 08:29:06;;;;;;;2.37;1.70;;;;;;;15.15;100.00;99188.25;1679093;85;21224;-72
2022/09/24 08:31:34;;;;;;;4.42;1.95;;;;;;;15.29;100.00;99191.34;1676426;85;21402;-71
2022/09/24 08:34:04;;;;;;;5.20;1.80;;;;;;;15.38;100.00;99189.77;1679204;85;21465;-66
2022/09/24 08:36:31;;;;;;;1.50;1.37;;;;;;;15.49;100.00;99180.29;1659641;85;21118;-69
2022/09/24 08:39:01;;;;;;;4.80;1.98;;;;;;;15.60;100.00;99183.89;1679226;85;20922;-70
2022/09/24 08:41:55;;;;;;;2.17;1.80;;;;;;;15.71;100.00;99183.56;1679094;85;21139;-69
2022/09/24 09:03:44;;;;;;;5.60;1.80;;;;;;;15.99;100.00;99184.55;1773307;81;23438;-70
2022/09/24 09:07:08;;;;;;;7.53;2.20;;;;;;;15.94;100.00;99189.20;1748272;82;21525;-71
2022/09/24 09:09:49;;;;;;;;;;;;;;;16.02;100.00;99186.02;1682325;85;21188;-71
2022/09/24 09:12:23;;;;;;;2.12;1.70;;;;;;;16.21;100.00;99189.14;1755425;81;20082;-72
2022/09/24 09:14:58;;;;;;;1.90;1.65;;;;;;;16.32;100.00;99194.34;1759186;81;20943;-71
2022/09/24 09:17:51;;;;;;;2.72;1.85;;;;;;;16.38;100.00;99194.84;1752993;81;20976;-70
2022/09/24 09:20:23;;;;;;;4.40;1.60;;;;;;;16.35;100.00;99187.23;1738713;82;20970;-71
2022/09/24 09:22:52;;;;;;;2.17;1.75;;;;;;;16.23;100.00;99179.28;1784301;80;21525;-70
2022/09/24 09:38:49;;;;;;;2.37;2.17;;;;;;;16.13;100.00;99186.81;1872885;76;22702;-72
2022/09/24 09:41:50;;;;;;;3.05;2.30;;;;;;;16.12;100.00;99186.61;1836245;78;20929;-71
2022/09/24 09:44:28;;;;;;;1.90;1.80;;;;;;;16.03;100.00;99183.47;1841683;78;21146;-71
2022/09/24 09:47:12;;;;;;;3.60;1.75;;;;;;;15.97;100.00;99179.33;1841634;78;20957;-68
2022/09/24 09:49:39;;;;;;;2.15;1.65;;;;;;;15.88;100.00;99175.97;1841934;78;20885;-71
2022/09/24 09:52:14;;;;;;;4.50;1.60;;;;;;;15.66;100.00;99181.86;1841708;78;20866;-68
2022/09/24 09:54:42;;;;;;;8.85;2.50;;;;;;;15.52;100.00;99182.94;1841958;78;20921;-69
2022/09/24 09:57:17;;;;;;;3.62;1.92;;;;;;;15.40;100.00;99180.52;1841563;78;21182;-67
2022/09/24 09:59:52;;;;;;;8.00;1.80;;;;;;;15.40;100.00;99181.08;1841951;78;20873;-69
2022/09/24 10:02:32;;;;;;;3.87;2.37;;;;;;;15.41;100.00;99174.36;1811808;78;21469;-70
2022/09/24 10:05:01;;;;;;;2.60;2.10;;;;;;;15.42;100.00;99177.37;1841995;78;20933;-70
2022/09/24 10:07:30;;;;;;;3.05;2.25;;;;;;;15.42;100.00;99173.99;1837753;78;21378;-70
2022/09/24 10:10:18;;;;;;;4.50;1.98;;;;;;;15.37;100.00;99172.09;1841595;78;21690;-74
2022/09/24 10:12:46;;;;;;;5.90;2.12;;;;;;;15.24;100.00;99176.36;1778235;80;20909;-71
2022/09/24 10:15:23;;;;;;;2.12;1.75;;;;;;;15.15;100.00;99170.21;1791029;79;20960;-71
2022/09/24 10:17:52;;;;;;;2.37;1.62;;;;;;;15.11;100.00;99186.77;1790959;79;20962;-72
2022/09/24 10:20:27;;;;;;;1.67;1.27;;;;;;;15.10;100.00;99190.69;1791213;80;20937;-73
2022/09/24 10:23:06;;;;;;;2.22;1.65;;;;;;;15.09;100.00;99187.70;1790840;79;21102;-70
2022/09/24 10:25:38;;;;;;;1.85;1.60;;;;;;;15.13;100.00;99182.25;1791081;80;20960;-69
2022/09/24 10:31:05;;;;;;;3.52;1.82;;;;;;;15.30;100.00;99176.30;1779845;80;20977;-70
2022/09/24 10:33:42;;;;;;;2.40;1.85;;;;;;;15.40;100.00;99168.02;1778550;80;20921;-72
2022/09/24 10:36:24;;;;;;;2.17;1.50;;;;;;;15.40;100.00;99175.53;1779997;80;21131;-71
2022/09/24 10:39:14;;;;;;;2.58;2.00;;;;;;;15.37;100.00;99174.27;1755452;81;21011;-73
2022/09/24 10:41:51;;;;;;;3.75;1.77;;;;;;;15.37;100.00;99173.48;1755755;81;20916;-69
2022/09/24 10:44:28;;;;;;;5.25;1.62;;;;;;;15.55;100.00;99180.82;1755428;81;20960;-70
2022/09/24 10:47:14;;;;;;;1.70;1.30;;;;;;;15.73;100.00;99169.31;1751433;81;20925;-70
2022/09/24 10:50:02;;;;;;;2.62;1.32;;;;;;;15.86;100.00;99169.97;1755782;81;21217;-72
2022/09/24 10:52:48;;;;;;;4.33;1.70;;;;;;;15.86;100.00;99178.30;1755444;81;20846;-71
2022/09/24 10:56:00;;;;;;;4.70;1.67;;;;;;;15.86;100.00;99179.13;1755552;81;20921;-73
2022/09/24 10:59:14;;;;;;;3.02;1.90;;;;;;;15.85;100.00;99185.83;1755732;81;20929;-72
2022/09/24 11:02:20;;;;;;;2.30;1.65;;;;;;;15.81;100.00;99182.97;1754991;81;21003;-70
2022/09/24 11:05:05;;;;;;;2.10;1.60;;;;;;;15.74;100.00;99184.22;1755825;81;21064;-73
2022/09/24 11:07:53;;;;;;;2.30;1.67;;;;;;;15.66;100.00;99186.02;1755260;81;20988;-69
2022/09/24 11:11:01;;;;;;;2.58;1.70;;;;;;;15.83;100.00;99182.62;1755727;81;20881;-70
2022/09/24 11:13:56;;;;;;;2.47;2.02;;;;;;;16.02;100.00;99181.84;1733181;81;20940;-66
2022/09/24 11:16:54;;;;;;;5.97;2.20;;;;;;;16.16;100.00;99183.30;1691576;83;21158;-75
2022/09/24 11:23:28;;;;;;;18.98;9.55;;;;;;;16.28;100.00;99185.13;1740959;81;21536;-71
2022/09/24 11:30:12;;;;;;;10.58;3.72;;;;;;;16.13;100.00;99182.65;1679481;84;21004;-76
2022/09/24 11:33:34;;;;;;;5.62;2.17;;;;;;;15.99;100.00;99176.21;1680349;84;21032;-77
2022/09/24 11:36:26;;;;;;;3.52;2.10;;;;;;;15.92;100.00;99180.42;1692506;84;21151;-72
2022/09/24 11:39:51;;;;;;;4.42;1.82;;;;;;;15.99;100.00;99179.80;1703130;83;21055;-71
2022/09/24 11:50:41;;;;;;;3.42;2.17;;;;;;;16.37;100.00;99181.55;1761393;81;21096;-68
2022/09/24 11:53:56;;;;;;;2.17;1.63;;;;;;;16.33;100.00;99182.62;1716867;81;21032;-75
2022/09/24 11:57:08;;;;;;;2.25;1.40;;;;;;;16.24;100.00;99178.70;1683530;84;20901;-75
2022/09/24 12:00:09;;;;;;;3.42;1.10;;;;;;;16.14;100.00;99184.25;1679253;84;21700;-69
2022/09/24 12:03:05;;;;;;;4.37;1.10;;;;;;;16.05;100.00;99187.27;1787605;78;20902;-70
2022/09/24 12:05:52;;;;;;;1.35;1.25;;;;;;;15.85;100.00;99198.33;1805533;79;20962;-74
2022/09/24 12:08:40;;;;;;;1.27;1.00;;;;;;;15.67;100.00;99195.16;1806793;78;21855;-72
2022/09/24 12:11:29;;;;;;;1.95;1.05;;;;;;;15.47;100.00;99197.09;1828363;78;20887;-71
2022/09/24 12:14:20;;;;;;;1.82;0.93;;;;;;;15.26;100.00;99201.79;1788313;79;21037;-73
2022/09/24 12:16:54;;;;;;;2.30;1.20;;;;;;;15.09;100.00;99200.19;1824490;78;20922;-69
2022/09/24 12:19:40;;;;;;;2.70;1.42;;;;;;;14.97;100.00;99198.31;1802765;78;20978;-70
2022/09/24 12:22:18;;;;;;;2.35;1.72;;;;;;;14.78;100.00;99198.98;1811529;78;20927;-70
2022/09/24 12:35:56;;;;;;;1.47;1.12;;;;;;;14.51;100.00;99232.75;1822366;78;21013;-70
2022/09/24 12:38:59;;;;;;;1.27;1.17;;;;;;;14.43;100.00;99219.86;1790406;79;21056;-70
2022/09/24 12:41:40;;;;;;;1.22;1.07;;;;;;;14.30;100.00;99205.23;1792499;79;21097;-72
2022/09/24 12:44:16;;;;;;;2.40;1.30;;;;;;;14.24;100.00;99206.88;1797019;79;21078;-70
2022/09/24 12:46:54;;;;;;;1.70;0.98;;;;;;;14.33;100.00;99203.17;1821655;78;20943;-70
2022/09/24 12:49:36;;;;;;;1.32;0.80;;;;;;;14.52;100.00;99205.25;1806240;76;21113;-69
2022/09/24 12:52:23;;;;;;;0.70;0.70;;;;;;;14.72;100.00;99211.72;1824084;76;21793;-72
2022/09/24 12:55:01;;;;;;;0.72;0.70;;;;;;;14.88;100.00;99208.19;1801337;78;20926;-68
2022/09/24 12:57:40;;;;;;;2.10;0.90;;;;;;;14.96;100.00;99217.52;1827288;78;21403;-67
2022/09/24 13:00:44;;;;;;;1.10;0.82;;;;;;;14.94;100.00;99217.84;1834390;78;20906;-72
2022/09/24 13:03:37;;;;;;;1.85;1.20;;;;;;;14.89;100.00;99213.16;1747384;81;21034;-69
2022/09/24 13:06:36;;;;;;;1.72;1.00;;;;;;;14.85;100.00;99201.98;1817679;78;21098;-72
2022/09/24 13:09:36;;;;;;;2.15;1.50;;;;;;;14.79;100.00;99194.46;1819400;76;20912;-68
2022/09/24 13:12:19;;;;;;;1.82;1.20;;;;;;;14.69;100.00;99198.57;1810374;78;20954;-70